Time;durP1;ratioP1;P1;durP2;ratioP2;P2;SDS_P1;SDS_P2;PMS_P1;PMS_P2;Temp;Humidity;BMP_temperature;BMP_pressure;BME280_temperature;BME280_humidity;BME280_pressure;Samples;Min_cycle;Max_cycle;Signal;HPM_P1;HPM_P2
2022/10/20 00:02:21;;;;;;;7.37;1.80;;;9.10;99.90;;;;;;5016832;28;20200;-62
2022/10/20 00:04:48;;;;;;;3.90;1.65;;;9.10;99.90;;;;;;5039124;28;20765;-62
2022/10/20 00:07:15;;;;;;;11.03;2.03;;;9.20;99.90;;;;;;5045652;28;20224;-61
2022/10/20 00:09:42;;;;;;;3.90;1.90;;;9.10;99.90;;;;;;5029042;28;20200;-62
2022/10/20 00:12:10;;;;;;;6.97;1.63;;;9.10;99.90;;;;;;5025791;28;20259;-61
2022/10/20 00:14:37;;;;;;;4.35;1.98;;;9.10;99.90;;;;;;5012165;28;20225;-62
2022/10/20 00:17:05;;;;;;;3.85;1.98;;;9.10;99.90;;;;;;5050003;28;20204;-62
2022/10/20 00:19:32;;;;;;;5.17;1.90;;;9.10;99.90;;;;;;5026419;28;20254;-62
2022/10/20 00:21:59;;;;;;;5.57;1.80;;;9.10;99.90;;;;;;5041172;28;20639;-62
2022/10/20 00:24:26;;;;;;;2.93;1.73;;;9.10;99.90;;;;;;5046506;28;20204;-62
2022/10/20 00:26:53;;;;;;;8.47;1.73;;;9.10;99.90;;;;;;5033334;28;20243;-62
2022/10/20 00:29:22;;;;;;;2.23;1.73;;;9.00;99.90;;;;;;5015078;28;20204;-63
2022/10/20 00:31:48;;;;;;;3.47;1.48;;;9.00;99.90;;;;;;5055129;28;20204;-62
2022/10/20 00:34:15;;;;;;;6.72;1.77;;;9.00;99.90;;;;;;5028529;28;21337;-63
2022/10/20 00:36:42;;;;;;;6.15;1.92;;;9.00;99.90;;;;;;5037570;28;20204;-61
2022/10/20 00:39:09;;;;;;;5.13;1.87;;;8.90;99.90;;;;;;5059371;28;20196;-61
2022/10/20 00:41:35;;;;;;;3.15;1.70;;;9.00;99.90;;;;;;5047949;28;20222;-61
2022/10/20 00:44:23;;;;;;;8.23;2.00;;;9.00;99.90;;;;;;5041861;28;20519;-61
2022/10/20 00:46:51;;;;;;;3.83;2.10;;;9.00;99.90;;;;;;5022629;28;20239;-61
2022/10/20 00:49:22;;;;;;;4.13;1.55;;;8.90;99.90;;;;;;5031065;28;20227;-61
2022/10/20 00:51:50;;;;;;;2.17;1.70;;;8.90;99.90;;;;;;5041398;28;20196;-61
2022/10/20 00:54:20;;;;;;;2.15;1.73;;;8.90;99.90;;;;;;5040747;28;20211;-61
2022/10/20 00:56:48;;;;;;;5.32;1.80;;;8.80;99.90;;;;;;5056610;28;20210;-62
2022/10/20 00:59:19;;;;;;;2.17;1.70;;;8.80;99.90;;;;;;5047552;28;20204;-61
2022/10/20 01:01:46;;;;;;;2.80;1.70;;;8.80;99.90;;;;;;5025280;28;20212;-61
2022/10/20 01:04:15;;;;;;;4.00;2.30;;;8.80;99.90;;;;;;5044940;28;20204;-62
2022/10/20 01:06:42;;;;;;;5.43;1.70;;;8.70;99.90;;;;;;5036880;28;20286;-61
2022/10/20 01:09:09;;;;;;;2.80;1.80;;;8.70;99.90;;;;;;5018064;28;20204;-61
2022/10/20 01:11:45;;;;;;;5.72;1.70;;;8.70;99.90;;;;;;5042595;28;20227;-62
2022/10/20 01:14:27;;;;;;;5.60;1.80;;;8.70;99.90;;;;;;5048428;28;20256;-63
2022/10/20 01:17:01;;;;;;;2.33;1.53;;;8.70;99.90;;;;;;5057940;28;20246;-61
2022/10/20 01:20:03;;;;;;;4.43;2.00;;;8.70;99.90;;;;;;4988320;28;20225;-61
2022/10/20 01:22:46;;;;;;;2.10;1.50;;;8.80;99.90;;;;;;5016994;28;20457;-61
2022/10/20 01:25:20;;;;;;;4.00;2.00;;;8.70;99.90;;;;;;5010831;28;20204;-62
2022/10/20 01:27:55;;;;;;;3.83;1.60;;;8.70;99.90;;;;;;5040247;28;20206;-61
2022/10/20 01:30:23;;;;;;;3.80;1.73;;;8.60;99.90;;;;;;5011328;28;20220;-62
2022/10/20 01:33:05;;;;;;;8.63;2.00;;;8.70;99.90;;;;;;5043916;28;20224;-62
2022/10/20 01:35:39;;;;;;;2.17;1.57;;;8.80;99.90;;;;;;5003274;28;20929;-61
2022/10/20 01:38:13;;;;;;;6.30;1.80;;;8.70;99.90;;;;;;5036587;28;20211;-61
2022/10/20 01:40:45;;;;;;;2.60;1.83;;;8.70;99.90;;;;;;5032247;28;20207;-61
2022/10/20 01:43:17;;;;;;;5.93;2.00;;;8.70;99.90;;;;;;5056725;28;20208;-61
2022/10/20 01:45:47;;;;;;;4.93;1.90;;;8.70;99.90;;;;;;5044132;28;20215;-61
2022/10/20 01:48:16;;;;;;;3.20;1.60;;;8.70;99.90;;;;;;5051206;28;20736;-61
2022/10/20 01:50:46;;;;;;;5.00;2.00;;;8.70;99.90;;;;;;4984407;28;20220;-61
2022/10/20 01:53:13;;;;;;;1.80;1.67;;;8.70;99.90;;;;;;5055477;28;20617;-61
2022/10/20 01:55:40;;;;;;;6.63;1.73;;;8.70;99.90;;;;;;5037887;28;20200;-61
2022/10/20 01:58:32;;;;;;;3.23;1.50;;;8.80;99.90;;;;;;5033128;28;20200;-61
2022/10/20 02:01:04;;;;;;;5.00;2.10;;;8.80;99.90;;;;;;5038805;28;20303;-61
2022/10/20 02:03:41;;;;;;;4.50;1.90;;;8.80;99.90;;;;;;5021305;28;20219;-61
2022/10/20 02:06:19;;;;;;;7.30;1.97;;;8.80;99.90;;;;;;5039034;28;20336;-61
2022/10/20 02:08:47;;;;;;;4.83;1.90;;;8.80;99.90;;;;;;5038388;28;21800;-61
2022/10/20 02:11:22;;;;;;;5.23;1.80;;;8.80;99.90;;;;;;5034591;28;20229;-61
2022/10/20 02:13:52;;;;;;;4.13;1.80;;;8.80;99.90;;;;;;5023730;28;20220;-61
2022/10/20 02:16:25;;;;;;;3.60;1.83;;;8.80;99.90;;;;;;5040502;28;20227;-62
2022/10/20 02:18:52;;;;;;;4.43;2.10;;;8.80;99.90;;;;;;5049956;28;20196;-62
2022/10/20 02:21:19;;;;;;;2.10;1.70;;;8.80;99.90;;;;;;5006310;22;20236;-62
2022/10/20 02:23:49;;;;;;;5.27;1.93;;;8.80;99.90;;;;;;4986860;28;20378;-62
2022/10/20 02:26:19;;;;;;;3.00;1.77;;;8.80;99.90;;;;;;5002123;28;20694;-62
2022/10/20 02:28:51;;;;;;;7.77;1.90;;;8.80;99.90;;;;;;4981385;28;20221;-61
2022/10/20 02:31:19;;;;;;;3.83;1.73;;;8.80;99.90;;;;;;4969282;28;20225;-62
2022/10/20 02:33:47;;;;;;;8.73;1.90;;;8.70;99.90;;;;;;4989514;28;20772;-62
2022/10/20 02:36:17;;;;;;;2.47;1.60;;;8.70;99.90;;;;;;4960524;28;22837;-62
2022/10/20 02:38:44;;;;;;;3.83;1.67;;;8.70;99.90;;;;;;5000902;28;20329;-62
2022/10/20 02:41:11;;;;;;;3.37;1.70;;;8.60;99.90;;;;;;4971285;28;20594;-62
2022/10/20 02:43:38;;;;;;;1.63;1.53;;;8.60;99.90;;;;;;4984379;28;20202;-62
2022/10/20 02:46:06;;;;;;;3.63;1.93;;;8.60;99.90;;;;;;4959425;28;20234;-62
2022/10/20 02:48:33;;;;;;;2.97;1.90;;;8.60;99.90;;;;;;4964707;28;20222;-62
2022/10/20 02:51:00;;;;;;;4.10;1.33;;;8.50;99.90;;;;;;4948351;28;20229;-62
2022/10/20 02:53:26;;;;;;;1.70;1.50;;;8.50;99.90;;;;;;4970633;28;20722;-62
2022/10/20 02:55:53;;;;;;;3.00;1.70;;;8.50;99.90;;;;;;4993826;28;20603;-60
2022/10/20 02:58:20;;;;;;;6.93;1.90;;;8.50;99.90;;;;;;4964961;28;20357;-61
2022/10/20 03:00:49;;;;;;;6.53;1.70;;;8.60;99.90;;;;;;4966685;28;20212;-61
2022/10/20 03:03:17;;;;;;;2.08;1.40;;;8.50;99.90;;;;;;4976636;28;20553;-61
2022/10/20 03:05:45;;;;;;;4.90;1.77;;;8.50;99.90;;;;;;4983418;28;20213;-61
2022/10/20 03:08:13;;;;;;;4.97;1.67;;;8.50;99.90;;;;;;4949398;28;20514;-61
2022/10/20 03:10:40;;;;;;;2.43;2.10;;;8.60;99.90;;;;;;4993108;28;20195;-61
2022/10/20 03:13:07;;;;;;;3.47;1.53;;;8.60;99.90;;;;;;4948646;28;20339;-62
2022/10/20 03:15:34;;;;;;;4.10;1.83;;;8.60;99.90;;;;;;4979549;28;20207;-61
2022/10/20 03:18:01;;;;;;;2.60;1.60;;;8.60;99.90;;;;;;4976994;28;20222;-62
2022/10/20 03:20:29;;;;;;;12.30;2.00;;;8.60;99.90;;;;;;4980100;28;20256;-61
2022/10/20 03:22:56;;;;;;;2.70;1.50;;;8.50;99.90;;;;;;4963073;28;20221;-61
2022/10/20 03:25:23;;;;;;;3.10;1.67;;;8.50;99.90;;;;;;4947551;28;20218;-61
2022/10/20 03:27:49;;;;;;;3.13;1.63;;;8.50;99.90;;;;;;4987821;28;20265;-61
2022/10/20 03:30:16;;;;;;;3.63;2.17;;;8.50;99.90;;;;;;4965564;28;20214;-61
2022/10/20 03:32:43;;;;;;;1.77;1.60;;;8.50;99.90;;;;;;4940785;28;20469;-60
2022/10/20 03:35:10;;;;;;;5.57;2.23;;;8.50;99.90;;;;;;4954275;28;20227;-61
2022/10/20 03:37:38;;;;;;;2.23;1.63;;;8.50;99.90;;;;;;4933156;28;20624;-61
2022/10/20 03:40:06;;;;;;;10.43;2.00;;;8.50;99.90;;;;;;4962588;28;20211;-61
2022/10/20 03:42:33;;;;;;;1.63;1.40;;;8.50;99.90;;;;;;4984836;28;20233;-61
2022/10/20 03:45:00;;;;;;;3.53;1.70;;;8.50;99.90;;;;;;4995587;28;20214;-61
2022/10/20 03:47:27;;;;;;;6.27;1.60;;;8.50;99.90;;;;;;4986644;28;20573;-61
2022/10/20 03:49:53;;;;;;;4.07;1.83;;;8.40;99.90;;;;;;4988397;28;20210;-61
2022/10/20 03:52:20;;;;;;;3.63;1.83;;;8.40;99.90;;;;;;4969115;28;20214;-61
2022/10/20 03:54:48;;;;;;;3.50;1.67;;;8.40;99.90;;;;;;4975661;28;20592;-61
2022/10/20 03:57:15;;;;;;;2.53;1.70;;;8.40;99.90;;;;;;4980646;28;20206;-61
2022/10/20 03:59:42;;;;;;;3.37;1.80;;;8.40;99.90;;;;;;4972680;28;20908;-61
2022/10/20 04:02:23;;;;;;;5.30;1.80;;;8.40;99.90;;;;;;4974556;28;20228;-61
2022/10/20 04:04:49;;;;;;;2.50;1.70;;;8.30;99.90;;;;;;4989736;28;20221;-61
2022/10/20 04:07:16;;;;;;;2.97;1.80;;;8.30;99.90;;;;;;4963023;28;20226;-61
2022/10/20 04:09:43;;;;;;;4.73;1.93;;;8.30;99.90;;;;;;4970490;28;21330;-61
2022/10/20 04:12:11;;;;;;;3.93;2.13;;;8.30;99.90;;;;;;4983861;28;20222;-61
2022/10/20 04:14:39;;;;;;;3.73;2.10;;;8.30;99.90;;;;;;4974951;28;20232;-61
2022/10/20 04:17:06;;;;;;;15.53;2.43;;;8.30;99.90;;;;;;4970159;28;20222;-61
2022/10/20 04:19:33;;;;;;;2.93;1.90;;;8.30;99.90;;;;;;4973791;28;20202;-61
2022/10/20 04:22:00;;;;;;;6.43;2.17;;;8.30;99.90;;;;;;5002213;28;20226;-61
2022/10/20 04:24:26;;;;;;;2.70;1.97;;;8.30;99.90;;;;;;4964936;28;21142;-61
2022/10/20 04:26:53;;;;;;;3.00;2.00;;;8.30;99.90;;;;;;4968599;28;20396;-61
2022/10/20 04:29:21;;;;;;;2.13;1.80;;;8.20;99.90;;;;;;4959956;28;20490;-62
2022/10/20 04:31:48;;;;;;;9.03;2.20;;;8.20;99.90;;;;;;4973488;28;20718;-61
2022/10/20 04:34:15;;;;;;;4.37;2.17;;;8.10;99.90;;;;;;4975891;28;20198;-60
2022/10/20 04:36:42;;;;;;;3.07;2.70;;;8.10;99.90;;;;;;4976217;28;20215;-61
2022/10/20 04:39:09;;;;;;;3.40;2.53;;;8.10;99.90;;;;;;4933634;28;20218;-61
2022/10/20 04:41:35;;;;;;;4.70;2.50;;;8.10;99.90;;;;;;4958308;28;20222;-61
2022/10/20 04:44:02;;;;;;;3.43;2.70;;;8.10;99.90;;;;;;4966093;28;20230;-60
2022/10/20 04:46:30;;;;;;;2.87;2.50;;;8.00;99.90;;;;;;4977728;28;20679;-61
2022/10/20 04:48:57;;;;;;;6.33;3.00;;;8.00;99.90;;;;;;4997635;28;20219;-61
2022/10/20 04:51:24;;;;;;;5.23;2.30;;;8.00;99.90;;;;;;4980858;28;20232;-61
2022/10/20 04:53:51;;;;;;;2.90;2.17;;;7.90;99.90;;;;;;4960510;28;20240;-61
2022/10/20 04:56:20;;;;;;;3.47;1.80;;;7.90;99.90;;;;;;4977511;28;20206;-61
2022/10/20 04:58:50;;;;;;;6.83;2.20;;;8.00;99.90;;;;;;4972093;28;20250;-61
2022/10/20 05:01:17;;;;;;;4.23;2.13;;;8.00;99.90;;;;;;4988241;28;20243;-61
2022/10/20 05:03:45;;;;;;;3.10;1.90;;;7.90;99.90;;;;;;4979637;28;20227;-61
2022/10/20 05:06:14;;;;;;;2.80;2.10;;;7.80;99.90;;;;;;4993490;28;20207;-61
2022/10/20 05:08:42;;;;;;;4.90;2.37;;;7.90;99.90;;;;;;4949870;28;20380;-61
2022/10/20 05:11:09;;;;;;;2.40;1.97;;;7.90;99.90;;;;;;4984633;28;20531;-61
2022/10/20 05:13:37;;;;;;;4.43;2.00;;;7.80;99.90;;;;;;4965767;28;20782;-63
2022/10/20 05:16:04;;;;;;;3.37;1.83;;;7.90;99.90;;;;;;4965854;28;20633;-61
2022/10/20 05:18:31;;;;;;;8.97;2.03;;;7.80;99.90;;;;;;4986198;28;20225;-61
2022/10/20 05:20:59;;;;;;;4.97;2.30;;;7.90;99.90;;;;;;4996358;28;20298;-61
2022/10/20 05:23:26;;;;;;;2.83;1.90;;;7.80;99.90;;;;;;4964270;28;20218;-61
2022/10/20 05:25:53;;;;;;;2.37;2.07;;;7.90;99.90;;;;;;4967321;28;20214;-61
2022/10/20 05:28:20;;;;;;;2.37;2.10;;;7.80;99.90;;;;;;4956229;28;20651;-61
2022/10/20 05:30:46;;;;;;;7.27;2.03;;;7.90;99.90;;;;;;4969095;28;20600;-61
2022/10/20 05:33:13;;;;;;;4.40;3.90;;;7.80;99.90;;;;;;4979630;28;20202;-61
2022/10/20 05:35:40;;;;;;;2.93;1.87;;;7.80;99.90;;;;;;4978521;28;20198;-61
2022/10/20 05:38:08;;;;;;;5.40;1.90;;;7.80;99.90;;;;;;4976171;28;20377;-61
2022/10/20 05:40:35;;;;;;;4.33;1.90;;;7.80;99.90;;;;;;4950611;28;20226;-61
2022/10/20 05:43:01;;;;;;;2.73;2.13;;;7.80;99.90;;;;;;4969044;28;20219;-61
2022/10/20 05:45:28;;;;;;;5.53;2.23;;;7.80;99.90;;;;;;4970571;28;20206;-61
2022/10/20 05:47:55;;;;;;;4.17;2.00;;;7.60;99.90;;;;;;4994831;28;20229;-61
2022/10/20 05:50:22;;;;;;;3.97;1.90;;;7.80;99.90;;;;;;4984999;28;20222;-61
2022/10/20 05:52:49;;;;;;;3.53;2.17;;;7.80;99.90;;;;;;4983099;28;20202;-61
2022/10/20 05:55:17;;;;;;;4.87;1.93;;;7.80;99.90;;;;;;4979286;28;20207;-61
2022/10/20 05:57:44;;;;;;;4.03;2.00;;;7.80;99.90;;;;;;4935607;28;20576;-62
2022/10/20 06:00:12;;;;;;;2.97;1.90;;;7.80;99.90;;;;;;4982187;28;20213;-61
2022/10/20 06:02:39;;;;;;;2.77;2.13;;;7.80;99.90;;;;;;4971261;28;20198;-61
2022/10/20 06:05:06;;;;;;;2.57;1.60;;;7.70;99.90;;;;;;4985630;28;20206;-60
2022/10/20 06:07:32;;;;;;;2.17;1.90;;;7.80;99.90;;;;;;4975956;28;20240;-61
2022/10/20 06:09:59;;;;;;;3.50;2.00;;;7.90;99.90;;;;;;4960770;28;20213;-60
2022/10/20 06:12:27;;;;;;;3.93;2.20;;;7.80;99.90;;;;;;4955780;28;20223;-61
2022/10/20 06:14:54;;;;;;;2.90;1.80;;;7.80;99.90;;;;;;4932631;28;20219;-61
2022/10/20 06:17:21;;;;;;;2.73;2.23;;;7.80;99.90;;;;;;4980654;28;20767;-61
2022/10/20 06:19:47;;;;;;;2.60;2.00;;;7.70;99.90;;;;;;4949479;28;20269;-60
2022/10/20 06:22:14;;;;;;;4.50;2.00;;;7.80;99.90;;;;;;4937481;28;20372;-61
2022/10/20 06:24:41;;;;;;;3.67;2.00;;;7.70;99.90;;;;;;4975534;28;20265;-61
2022/10/20 06:27:08;;;;;;;5.97;2.40;;;7.70;99.90;;;;;;4944028;28;20296;-61
2022/10/20 06:29:36;;;;;;;4.27;2.17;;;7.70;99.90;;;;;;4951467;28;21991;-61
2022/10/20 06:32:03;;;;;;;4.77;2.10;;;7.70;99.90;;;;;;4983545;28;20229;-61
2022/10/20 06:34:29;;;;;;;4.73;1.63;;;7.70;99.90;;;;;;4966347;28;23084;-61
2022/10/20 06:36:56;;;;;;;2.00;1.70;;;7.70;99.90;;;;;;4989718;28;20221;-61
2022/10/20 06:39:24;;;;;;;4.47;2.10;;;7.80;99.90;;;;;;4985136;28;20218;-61
2022/10/20 06:41:53;;;;;;;5.17;2.30;;;7.80;99.90;;;;;;4968443;28;20296;-61
2022/10/20 06:44:22;;;;;;;4.27;2.03;;;7.80;99.90;;;;;;4945095;28;21042;-61
2022/10/20 06:46:51;;;;;;;3.30;2.13;;;7.80;99.90;;;;;;4977286;28;20206;-61
2022/10/20 06:49:18;;;;;;;2.50;1.90;;;7.80;99.90;;;;;;4974740;28;20303;-62
2022/10/20 06:51:45;;;;;;;2.10;1.83;;;7.90;99.90;;;;;;4987518;28;20213;-61
2022/10/20 06:54:11;;;;;;;5.10;2.10;;;7.90;99.90;;;;;;4995920;28;20209;-61
2022/10/20 06:56:39;;;;;;;2.07;1.80;;;7.90;99.90;;;;;;4974865;28;20229;-61
2022/10/20 06:59:06;;;;;;;3.33;1.50;;;7.90;99.90;;;;;;4958339;28;20204;-61
2022/10/20 07:01:34;;;;;;;7.33;2.20;;;8.00;99.90;;;;;;4961295;28;20203;-61
2022/10/20 07:04:05;;;;;;;2.20;1.83;;;8.00;99.90;;;;;;4961538;28;20203;-61
2022/10/20 07:06:32;;;;;;;2.50;1.90;;;8.00;99.90;;;;;;4968934;28;20522;-61
2022/10/20 07:09:02;;;;;;;3.53;2.00;;;8.10;99.90;;;;;;4996352;28;20591;-60
2022/10/20 07:11:31;;;;;;;2.63;2.00;;;8.10;99.90;;;;;;4955097;28;20729;-61
2022/10/20 07:13:59;;;;;;;1.97;1.70;;;8.10;99.90;;;;;;4958436;28;20211;-61
2022/10/20 07:16:28;;;;;;;8.57;2.17;;;8.20;99.90;;;;;;4965340;28;20202;-61
2022/10/20 07:18:56;;;;;;;5.30;2.63;;;8.20;99.90;;;;;;4971232;28;20214;-61
2022/10/20 07:21:25;;;;;;;24.67;6.97;;;8.20;99.90;;;;;;4954918;28;20767;-60
2022/10/20 07:23:54;;;;;;;14.77;4.10;;;8.20;99.90;;;;;;4967190;28;20307;-61
2022/10/20 07:26:23;;;;;;;12.37;4.00;;;8.30;99.90;;;;;;4990704;28;20222;-62
2022/10/20 07:28:53;;;;;;;11.23;3.50;;;8.30;99.90;;;;;;4961225;28;21033;-61
2022/10/20 07:31:21;;;;;;;6.13;2.80;;;8.30;99.90;;;;;;4982636;28;20206;-62
2022/10/20 07:33:48;;;;;;;3.33;2.27;;;8.20;99.90;;;;;;4984290;28;20212;-61
2022/10/20 07:36:17;;;;;;;9.27;2.37;;;8.20;99.90;;;;;;4987912;28;20230;-60
2022/10/20 07:38:46;;;;;;;4.07;2.23;;;8.20;99.90;;;;;;4961842;28;20232;-60
2022/10/20 07:41:13;;;;;;;5.93;2.27;;;8.30;99.90;;;;;;4986719;28;20345;-60
2022/10/20 07:43:41;;;;;;;9.27;2.60;;;8.30;99.90;;;;;;4963307;28;20475;-61
2022/10/20 07:46:09;;;;;;;5.70;2.40;;;8.40;99.90;;;;;;4963767;28;20285;-60
2022/10/20 07:48:36;;;;;;;3.57;1.90;;;8.40;99.90;;;;;;4975431;28;20225;-60
2022/10/20 07:51:23;;;;;;;4.37;2.60;;;8.40;99.90;;;;;;4964119;28;20334;-60
2022/10/20 07:53:53;;;;;;;28.20;9.30;;;8.50;99.90;;;;;;4955999;28;20689;-61
2022/10/20 07:56:20;;;;;;;30.30;8.20;;;8.50;99.90;;;;;;4980183;28;20923;-61
2022/10/20 07:58:48;;;;;;;23.10;7.50;;;8.50;99.90;;;;;;4980095;28;20206;-60
2022/10/20 08:01:14;;;;;;;41.27;9.20;;;8.60;99.90;;;;;;4954278;28;20198;-60
2022/10/20 08:03:41;;;;;;;21.13;7.73;;;8.60;99.90;;;;;;4976232;28;20765;-60
2022/10/20 08:06:08;;;;;;;17.83;5.17;;;8.60;99.90;;;;;;4982693;28;20707;-60
2022/10/20 08:08:35;;;;;;;8.80;3.00;;;8.60;99.90;;;;;;4974305;28;20726;-61
2022/10/20 08:11:03;;;;;;;7.47;2.63;;;8.60;99.90;;;;;;4965550;28;20305;-61
2022/10/20 08:13:31;;;;;;;4.53;2.30;;;8.70;99.90;;;;;;4990234;28;20194;-61
2022/10/20 08:15:57;;;;;;;7.90;2.53;;;8.70;99.90;;;;;;4922855;28;20222;-61
2022/10/20 08:18:24;;;;;;;6.23;2.47;;;8.70;99.90;;;;;;4968721;28;20221;-61
2022/10/20 08:20:51;;;;;;;3.27;2.97;;;8.70;99.90;;;;;;4982091;28;20241;-61
2022/10/20 08:23:18;;;;;;;4.37;2.80;;;8.80;99.90;;;;;;4976410;28;20202;-61
2022/10/20 08:25:45;;;;;;;6.30;3.57;;;8.80;99.90;;;;;;4986579;28;20233;-61
2022/10/20 08:28:13;;;;;;;25.37;9.20;;;8.80;99.90;;;;;;4989837;28;20237;-61
2022/10/20 08:30:40;;;;;;;13.00;4.00;;;8.90;99.90;;;;;;4956027;28;20247;-61
2022/10/20 08:33:07;;;;;;;11.03;4.20;;;8.90;99.90;;;;;;4954708;28;20656;-61
2022/10/20 08:35:33;;;;;;;14.77;4.23;;;8.90;99.90;;;;;;4989008;28;20511;-61
2022/10/20 08:38:00;;;;;;;5.93;3.07;;;9.00;99.90;;;;;;4972882;28;20210;-61
2022/10/20 08:40:30;;;;;;;5.40;2.80;;;9.00;99.90;;;;;;4989180;28;20226;-63
2022/10/20 08:45:26;;;;;;;4.33;3.10;;;9.10;99.90;;;;;;5100049;22;20800;-61
2022/10/20 08:47:56;;;;;;;5.87;3.07;;;9.10;99.90;;;;;;4985440;28;20856;-62
2022/10/20 08:50:26;;;;;;;5.97;3.40;;;9.20;99.90;;;;;;5012619;28;20860;-61
2022/10/20 08:52:56;;;;;;;4.37;2.83;;;9.20;99.90;;;;;;5017179;28;21275;-62
2022/10/20 08:55:27;;;;;;;5.13;3.00;;;9.20;99.90;;;;;;5026058;28;20205;-61
2022/10/20 08:57:59;;;;;;;4.07;3.10;;;9.30;99.90;;;;;;5023216;28;20688;-61
2022/10/20 09:00:29;;;;;;;10.27;5.13;;;9.30;99.90;;;;;;5026948;28;20217;-61
2022/10/20 09:03:00;;;;;;;21.92;5.53;;;9.30;99.90;;;;;;4995093;28;20239;-62
2022/10/20 09:05:31;;;;;;;17.60;6.15;;;9.40;99.90;;;;;;5039372;28;20364;-61
2022/10/20 09:07:58;;;;;;;18.67;6.43;;;9.40;99.90;;;;;;5036222;28;20201;-62
2022/10/20 09:10:31;;;;;;;12.03;4.10;;;9.40;99.90;;;;;;5026952;28;20433;-62
2022/10/20 09:12:58;;;;;;;7.33;3.23;;;9.40;99.90;;;;;;5038901;28;20774;-62
2022/10/20 09:15:26;;;;;;;6.50;3.47;;;9.50;99.90;;;;;;5020469;28;20205;-62
2022/10/20 09:17:59;;;;;;;9.43;3.43;;;9.60;99.90;;;;;;5027649;28;20277;-62
2022/10/20 09:20:33;;;;;;;18.70;6.93;;;9.60;99.90;;;;;;5015711;28;20216;-62
2022/10/20 09:23:00;;;;;;;10.63;5.50;;;9.70;99.90;;;;;;5040326;28;20200;-62
2022/10/20 09:25:27;;;;;;;17.80;8.23;;;9.70;99.90;;;;;;5014285;28;20200;-62
2022/10/20 09:27:55;;;;;;;8.95;5.20;;;9.70;99.90;;;;;;5038064;28;20212;-62
2022/10/20 09:30:25;;;;;;;7.18;4.40;;;9.80;99.90;;;;;;5021955;28;20212;-62
2022/10/20 09:32:52;;;;;;;12.93;5.75;;;9.80;99.90;;;;;;5030963;28;20227;-61
2022/10/20 09:35:24;;;;;;;6.25;3.92;;;9.90;99.90;;;;;;5002469;28;20508;-61
2022/10/20 09:37:58;;;;;;;8.60;3.90;;;9.90;99.90;;;;;;5038238;28;20197;-61
2022/10/20 09:40:26;;;;;;;8.98;4.32;;;10.00;99.90;;;;;;5025621;28;20528;-62
2022/10/20 09:42:56;;;;;;;5.63;3.72;;;10.00;99.90;;;;;;5036455;28;20227;-61
2022/10/20 09:45:27;;;;;;;12.30;4.20;;;10.10;99.90;;;;;;5021953;28;20823;-63
2022/10/20 09:47:59;;;;;;;4.80;3.70;;;10.20;99.90;;;;;;5033535;28;20192;-62
2022/10/20 09:50:31;;;;;;;5.85;3.88;;;10.20;99.90;;;;;;4991039;28;20591;-62
2022/10/20 09:53:00;;;;;;;7.05;4.55;;;10.30;99.90;;;;;;5035860;28;20200;-62
2022/10/20 09:55:30;;;;;;;5.38;4.32;;;10.30;99.90;;;;;;5003993;28;20417;-62
2022/10/20 09:58:00;;;;;;;6.13;4.30;;;10.40;99.90;;;;;;5031731;28;20602;-62
2022/10/20 10:00:30;;;;;;;6.28;3.85;;;10.40;99.90;;;;;;5018685;28;20934;-62
2022/10/20 10:03:20;;;;;;;5.53;4.50;;;10.40;99.90;;;;;;5036168;28;20201;-61
2022/10/20 10:05:49;;;;;;;5.85;4.20;;;10.50;99.90;;;;;;5006953;28;20567;-62
2022/10/20 10:08:17;;;;;;;4.95;3.75;;;10.50;99.90;;;;;;5038923;28;20526;-61
2022/10/20 10:10:46;;;;;;;12.40;4.30;;;10.60;99.90;;;;;;5027421;28;20570;-62
2022/10/20 10:13:25;;;;;;;10.18;3.97;;;10.60;99.90;;;;;;5037755;28;20197;-62
2022/10/20 10:16:04;;;;;;;7.28;4.07;;;10.70;99.90;;;;;;5018615;28;21580;-62
2022/10/20 10:18:32;;;;;;;9.95;4.18;;;10.70;99.90;;;;;;5030846;28;20201;-62
2022/10/20 10:21:03;;;;;;;7.50;4.47;;;10.80;99.90;;;;;;4985701;28;20205;-62
2022/10/20 10:23:32;;;;;;;5.55;4.28;;;10.80;99.90;;;;;;5030366;28;20420;-62
2022/10/20 10:25:59;;;;;;;6.03;4.50;;;10.90;99.90;;;;;;5005430;28;20203;-62
2022/10/20 10:28:36;;;;;;;15.57;5.25;;;10.90;99.90;;;;;;4994629;28;20205;-63
2022/10/20 10:31:09;;;;;;;6.38;4.28;;;10.90;99.90;;;;;;5025400;28;20639;-62
2022/10/20 10:33:35;;;;;;;4.82;4.32;;;11.00;99.90;;;;;;5004893;28;20228;-62
2022/10/20 10:36:07;;;;;;;5.13;4.10;;;11.10;99.90;;;;;;4974120;28;20370;-63
2022/10/20 10:38:36;;;;;;;6.20;4.03;;;11.10;99.90;;;;;;5015855;28;20589;-62
2022/10/20 10:41:14;;;;;;;9.18;4.50;;;11.10;99.90;;;;;;5012087;28;20897;-62
2022/10/20 10:43:53;;;;;;;7.55;4.43;;;11.20;99.90;;;;;;5019823;28;20856;-62
2022/10/20 10:46:26;;;;;;;7.82;3.95;;;11.20;99.90;;;;;;5020948;28;20310;-62
2022/10/20 10:49:38;;;;;;;5.20;3.63;;;11.20;99.90;;;;;;5030581;28;20587;-62
2022/10/20 10:52:18;;;;;;;5.55;4.30;;;11.20;99.90;;;;;;4912060;28;20234;-63
2022/10/20 10:54:57;;;;;;;7.45;4.40;;;11.30;99.90;;;;;;4948886;28;21010;-62
2022/10/20 10:57:30;;;;;;;7.53;4.40;;;11.30;99.90;;;;;;4990882;28;20698;-62
2022/10/20 11:00:01;;;;;;;5.53;4.60;;;11.40;99.90;;;;;;5033074;28;20232;-61
2022/10/20 11:02:56;;;;;;;10.20;4.72;;;11.50;99.90;;;;;;5033331;28;20515;-62
2022/10/20 11:05:33;;;;;;;7.30;4.70;;;11.50;99.90;;;;;;4994620;28;20201;-62
2022/10/20 11:08:15;;;;;;;5.72;4.07;;;11.60;99.90;;;;;;4991973;28;20208;-62
2022/10/20 11:10:50;;;;;;;7.43;4.82;;;11.60;99.90;;;;;;5021287;28;20230;-62
2022/10/20 11:13:32;;;;;;;7.55;4.88;;;11.60;99.90;;;;;;5003524;28;20284;-61
2022/10/20 11:16:15;;;;;;;5.72;4.70;;;11.80;99.90;;;;;;5036407;28;20615;-62
2022/10/20 11:19:12;;;;;;;9.45;4.68;;;11.90;99.90;;;;;;5023039;28;20196;-62
2022/10/20 11:21:50;;;;;;;5.13;4.38;;;11.90;99.90;;;;;;5009475;28;20243;-62
2022/10/20 11:24:49;;;;;;;10.93;4.90;;;12.00;99.90;;;;;;4984029;28;20208;-62
2022/10/20 11:27:18;;;;;;;6.38;4.78;;;12.00;99.90;;;;;;5023882;28;20680;-62
2022/10/20 11:29:48;;;;;;;16.35;4.80;;;12.10;99.90;;;;;;5018719;28;20228;-62
2022/10/20 11:32:25;;;;;;;6.75;4.70;;;12.10;99.90;;;;;;5041905;28;20212;-62
2022/10/20 11:35:00;;;;;;;6.90;4.40;;;12.10;99.90;;;;;;5031404;28;20604;-62
2022/10/20 11:37:30;;;;;;;5.55;4.40;;;12.00;99.90;;;;;;5009772;28;20200;-62
2022/10/20 11:40:05;;;;;;;5.70;4.75;;;12.10;99.90;;;;;;4991915;28;20962;-63
2022/10/20 11:42:37;;;;;;;5.75;4.70;;;12.00;99.90;;;;;;5023221;28;20764;-61
2022/10/20 11:45:22;;;;;;;6.00;4.57;;;12.00;99.90;;;;;;5015429;28;21286;-62
2022/10/20 11:47:56;;;;;;;5.47;4.40;;;12.10;99.90;;;;;;5036643;28;20204;-61
2022/10/20 11:50:23;;;;;;;8.45;4.55;;;12.10;99.90;;;;;;5040667;28;20228;-61
2022/10/20 11:53:06;;;;;;;4.10;3.67;;;12.20;99.90;;;;;;5009957;28;20890;-63
2022/10/20 11:55:45;;;;;;;10.50;4.57;;;12.20;99.90;;;;;;5008905;28;20205;-64
2022/10/20 11:58:31;;;;;;;4.55;3.95;;;12.30;99.90;;;;;;5038487;28;20203;-61
2022/10/20 12:01:23;;;;;;;4.72;4.22;;;12.30;99.90;;;;;;5010267;28;23070;-61
2022/10/20 12:04:34;;;;;;;7.35;4.35;;;12.30;99.90;;;;;;5034170;28;20208;-61
2022/10/20 12:07:25;;;;;;;7.68;4.68;;;12.30;99.90;;;;;;4995434;28;20239;-61
2022/10/20 12:10:10;;;;;;;5.97;4.25;;;12.30;99.90;;;;;;5003184;28;20667;-61
2022/10/20 12:12:48;;;;;;;7.25;4.03;;;12.30;99.90;;;;;;4995209;28;20270;-62
2022/10/20 12:15:22;;;;;;;6.70;4.45;;;12.30;99.90;;;;;;5014331;28;20387;-61
2022/10/20 12:17:50;;;;;;;7.60;4.57;;;12.40;99.90;;;;;;5019687;28;20672;-61
2022/10/20 12:20:58;;;;;;;8.38;4.53;;;12.30;99.90;;;;;;5029835;28;20446;-60
2022/10/20 12:24:14;;;;;;;5.97;4.45;;;12.40;99.90;;;;;;5003554;28;20207;-61
2022/10/20 12:27:27;;;;;;;5.63;4.53;;;12.40;99.90;;;;;;4990543;28;20476;-62
2022/10/20 12:30:00;;;;;;;6.10;4.10;;;12.40;99.90;;;;;;5015157;28;20225;-61
2022/10/20 12:32:57;;;;;;;6.18;4.65;;;12.50;99.90;;;;;;5012179;28;21152;-61
2022/10/20 12:35:52;;;;;;;8.43;5.00;;;12.50;99.90;;;;;;5031643;28;20523;-61
2022/10/20 12:38:22;;;;;;;10.75;4.97;;;12.50;99.90;;;;;;5015237;28;20657;-61
2022/10/20 12:40:56;;;;;;;7.72;5.10;;;12.50;99.90;;;;;;4977226;28;20208;-62
2022/10/20 12:43:43;;;;;;;8.65;4.40;;;12.50;99.90;;;;;;5030325;28;20689;-62
2022/10/20 12:46:18;;;;;;;8.02;4.38;;;12.60;99.90;;;;;;5015555;28;20201;-61
2022/10/20 12:48:47;;;;;;;4.97;4.38;;;12.50;99.90;;;;;;4986299;28;20243;-61
2022/10/20 12:51:21;;;;;;;13.75;4.00;;;12.50;99.90;;;;;;5023601;28;20814;-61
2022/10/20 12:53:55;;;;;;;8.25;4.18;;;12.60;99.90;;;;;;4996888;28;20901;-61
2022/10/20 12:56:23;;;;;;;6.25;4.45;;;12.60;99.90;;;;;;5018999;28;20199;-62
2022/10/20 12:59:24;;;;;;;5.22;4.32;;;12.70;99.90;;;;;;4994933;28;21012;-61
2022/10/20 13:02:37;;;;;;;5.10;4.38;;;12.60;99.90;;;;;;5006325;28;20209;-60
2022/10/20 13:05:45;;;;;;;6.97;4.63;;;12.70;99.90;;;;;;5001243;28;20200;-61
2022/10/20 13:08:31;;;;;;;5.15;3.78;;;12.70;99.90;;;;;;5001216;28;20700;-61
2022/10/20 13:11:41;;;;;;;10.23;4.72;;;12.70;99.90;;;;;;5012055;28;20690;-61
2022/10/20 13:14:32;;;;;;;4.13;3.50;;;12.70;99.90;;;;;;4991660;28;20717;-61
2022/10/20 13:17:04;;;;;;;10.30;3.90;;;12.80;99.90;;;;;;5000359;28;20244;-61
2022/10/20 13:19:39;;;;;;;6.10;3.75;;;12.70;99.90;;;;;;5009087;28;21002;-61